sensor_id;sensor_type;location;lat;lon;timestamp;pressure;altitude;pressure_sealevel;temperature;humidity
22181;BME280;11256;50.830;12.834;2024-02-23T00:03:29;94938.66;;;11.38;71.27
22181;BME280;11256;50.830;12.834;2024-02-23T00:08:30;94955.78;;;11.42;70.61
22181;BME280;11256;50.830;12.834;2024-02-23T00:13:30;94948.72;;;11.37;70.58
22181;BME280;11256;50.830;12.834;2024-02-23T00:18:30;94956.50;;;11.39;70.02
22181;BME280;11256;50.830;12.834;2024-02-23T00:23:30;94949.50;;;11.38;70.16
22181;BME280;11256;50.830;12.834;2024-02-23T00:28:31;94938.22;;;11.36;69.93
22181;BME280;11256;50.830;12.834;2024-02-23T00:33:31;94959.03;;;11.32;70.11
22181;BME280;11256;50.830;12.834;2024-02-23T00:38:32;94932.84;;;11.20;69.80
22181;BME280;11256;50.830;12.834;2024-02-23T00:43:39;94961.59;;;11.25;69.97
22181;BME280;11256;50.830;12.834;2024-02-23T00:48:40;94980.97;;;11.27;69.67
22181;BME280;11256;50.830;12.834;2024-02-23T00:53:40;94985.38;;;11.31;69.69
22181;BME280;11256;50.830;12.834;2024-02-23T00:58:40;95000.84;;;11.31;69.49
22181;BME280;11256;50.830;12.834;2024-02-23T01:03:41;95020.88;;;11.26;69.27
22181;BME280;11256;50.830;12.834;2024-02-23T01:08:41;95037.09;;;11.11;69.02
22181;BME280;11256;50.830;12.834;2024-02-23T01:13:42;95061.94;;;11.13;69.10
22181;BME280;11256;50.830;12.834;2024-02-23T01:18:42;95078.03;;;11.06;69.61
22181;BME280;11256;50.830;12.834;2024-02-23T01:23:42;95105.13;;;11.06;69.34
22181;BME280;11256;50.830;12.834;2024-02-23T01:28:43;95136.94;;;11.09;69.06
22181;BME280;11256;50.830;12.834;2024-02-23T01:33:43;95124.09;;;11.06;68.96
22181;BME280;11256;50.830;12.834;2024-02-23T01:38:44;95121.00;;;10.92;68.61
22181;BME280;11256;50.830;12.834;2024-02-23T01:43:45;95119.09;;;10.92;68.23
22181;BME280;11256;50.830;12.834;2024-02-23T01:48:45;95137.00;;;10.97;68.91
22181;BME280;11256;50.830;12.834;2024-02-23T01:53:46;95145.03;;;10.93;68.29
22181;BME280;11256;50.830;12.834;2024-02-23T01:58:47;95150.00;;;10.91;67.96
22181;BME280;11256;50.830;12.834;2024-02-23T02:03:47;95163.44;;;10.88;67.79
22181;BME280;11256;50.830;12.834;2024-02-23T02:08:47;95174.97;;;10.85;67.70
22181;BME280;11256;50.830;12.834;2024-02-23T02:13:48;95146.34;;;10.72;67.90
22181;BME280;11256;50.830;12.834;2024-02-23T02:18:48;95171.28;;;10.77;68.14
22181;BME280;11256;50.830;12.834;2024-02-23T02:23:49;95207.97;;;10.75;67.71
22181;BME280;11256;50.830;12.834;2024-02-23T02:28:49;95204.69;;;10.69;67.26
22181;BME280;11256;50.830;12.834;2024-02-23T02:33:50;95211.69;;;10.70;67.37
22181;BME280;11256;50.830;12.834;2024-02-23T02:38:50;95208.88;;;10.55;67.32
22181;BME280;11256;50.830;12.834;2024-02-23T02:43:51;95232.00;;;10.52;67.24
22181;BME280;11256;50.830;12.834;2024-02-23T02:48:51;95229.19;;;10.49;67.42
22181;BME280;11256;50.830;12.834;2024-02-23T02:53:51;95240.25;;;10.44;67.12
22181;BME280;11256;50.830;12.834;2024-02-23T02:58:52;95237.78;;;10.39;67.03
22181;BME280;11256;50.830;12.834;2024-02-23T03:03:52;95251.63;;;10.37;66.42
22181;BME280;11256;50.830;12.834;2024-02-23T03:08:52;95264.84;;;10.27;66.36
22181;BME280;11256;50.830;12.834;2024-02-23T03:13:53;95256.91;;;9.98;65.15
22181;BME280;11256;50.830;12.834;2024-02-23T03:18:53;95294.38;;;10.08;65.46
22181;BME280;11256;50.830;12.834;2024-02-23T03:23:54;95301.88;;;10.02;65.25
22181;BME280;11256;50.830;12.834;2024-02-23T03:28:54;95327.56;;;9.96;64.47
22181;BME280;11256;50.830;12.834;2024-02-23T03:33:55;95350.00;;;9.97;64.58
22181;BME280;11256;50.830;12.834;2024-02-23T03:38:55;95353.13;;;9.87;64.66
22181;BME280;11256;50.830;12.834;2024-02-23T03:43:55;95382.59;;;9.80;64.91
22181;BME280;11256;50.830;12.834;2024-02-23T03:48:56;95403.78;;;9.78;64.16
22181;BME280;11256;50.830;12.834;2024-02-23T03:53:57;95418.81;;;9.67;64.44
22181;BME280;11256;50.830;12.834;2024-02-23T03:58:57;95417.56;;;9.64;64.23
22181;BME280;11256;50.830;12.834;2024-02-23T04:03:57;95418.25;;;9.61;64.39
22181;BME280;11256;50.830;12.834;2024-02-23T04:08:58;95418.63;;;9.51;64.38
22181;BME280;11256;50.830;12.834;2024-02-23T04:13:58;95434.44;;;9.41;64.19
22181;BME280;11256;50.830;12.834;2024-02-23T04:18:59;95444.34;;;9.37;64.14
22181;BME280;11256;50.830;12.834;2024-02-23T04:24:00;95437.72;;;9.26;63.77
22181;BME280;11256;50.830;12.834;2024-02-23T04:29:00;95450.47;;;9.17;63.95
22181;BME280;11256;50.830;12.834;2024-02-23T04:34:00;95452.44;;;9.08;62.86
22181;BME280;11256;50.830;12.834;2024-02-23T04:39:01;95468.22;;;8.97;63.56
22181;BME280;11256;50.830;12.834;2024-02-23T04:44:01;95488.75;;;8.90;63.26
22181;BME280;11256;50.830;12.834;2024-02-23T04:49:02;95493.06;;;8.74;62.74
22181;BME280;11256;50.830;12.834;2024-02-23T04:54:02;95530.06;;;8.82;63.26
22181;BME280;11256;50.830;12.834;2024-02-23T04:59:03;95498.31;;;8.79;63.21
22181;BME280;11256;50.830;12.834;2024-02-23T05:04:04;95489.75;;;8.68;63.10
22181;BME280;11256;50.830;12.834;2024-02-23T05:09:05;95505.00;;;8.73;63.06
22181;BME280;11256;50.830;12.834;2024-02-23T05:14:21;95487.22;;;8.72;63.10
22181;BME280;11256;50.830;12.834;2024-02-23T05:19:21;95490.09;;;8.67;63.67
22181;BME280;11256;50.830;12.834;2024-02-23T05:24:22;95494.84;;;8.61;63.31
22181;BME280;11256;50.830;12.834;2024-02-23T05:29:22;95512.03;;;8.57;63.34
22181;BME280;11256;50.830;12.834;2024-02-23T05:34:23;95523.44;;;8.54;63.99
22181;BME280;11256;50.830;12.834;2024-02-23T05:39:23;95533.78;;;8.52;63.72
22181;BME280;11256;50.830;12.834;2024-02-23T05:44:24;95542.34;;;8.45;63.94
22181;BME280;11256;50.830;12.834;2024-02-23T05:49:24;95564.91;;;8.41;64.16
22181;BME280;11256;50.830;12.834;2024-02-23T05:54:24;95572.34;;;8.35;64.31
22181;BME280;11256;50.830;12.834;2024-02-23T05:59:25;95587.28;;;8.33;64.26
22181;BME280;11256;50.830;12.834;2024-02-23T06:04:25;95589.81;;;8.21;64.21
22181;BME280;11256;50.830;12.834;2024-02-23T06:09:26;95623.00;;;8.30;64.25
22181;BME280;11256;50.830;12.834;2024-02-23T06:14:27;95604.72;;;8.27;64.13
22181;BME280;11256;50.830;12.834;2024-02-23T06:19:27;95611.56;;;8.24;64.50
22181;BME280;11256;50.830;12.834;2024-02-23T06:24:27;95614.84;;;8.13;64.34
22181;BME280;11256;50.830;12.834;2024-02-23T06:29:28;95649.16;;;8.21;64.33
22181;BME280;11256;50.830;12.834;2024-02-23T06:34:29;95630.72;;;8.14;64.43
22181;BME280;11256;50.830;12.834;2024-02-23T06:39:29;95651.34;;;8.19;64.12
22181;BME280;11256;50.830;12.834;2024-02-23T06:44:30;95639.91;;;8.13;63.79
22181;BME280;11256;50.830;12.834;2024-02-23T06:49:31;95642.00;;;8.16;64.15
22181;BME280;11256;50.830;12.834;2024-02-23T06:54:31;95646.56;;;8.16;64.17
22181;BME280;11256;50.830;12.834;2024-02-23T06:59:31;95653.78;;;8.20;64.63
22181;BME280;11256;50.830;12.834;2024-02-23T07:04:32;95659.63;;;8.22;64.30
22181;BME280;11256;50.830;12.834;2024-02-23T07:09:34;95687.28;;;8.36;63.80
22181;BME280;11256;50.830;12.834;2024-02-23T07:14:34;95691.72;;;8.41;63.85
22181;BME280;11256;50.830;12.834;2024-02-23T07:19:34;95707.13;;;8.40;63.77
22181;BME280;11256;50.830;12.834;2024-02-23T07:24:39;95714.59;;;8.52;62.98
22181;BME280;11256;50.830;12.834;2024-02-23T07:29:40;95722.84;;;8.47;63.42
22181;BME280;11256;50.830;12.834;2024-02-23T07:34:41;95732.84;;;8.46;63.67
22181;BME280;11256;50.830;12.834;2024-02-23T07:39:42;95744.59;;;8.42;63.50
22181;BME280;11256;50.830;12.834;2024-02-23T07:44:42;95749.38;;;8.45;63.49
22181;BME280;11256;50.830;12.834;2024-02-23T07:49:43;95741.88;;;8.42;63.66
22181;BME280;11256;50.830;12.834;2024-02-23T07:54:43;95752.22;;;8.40;63.64
22181;BME280;11256;50.830;12.834;2024-02-23T07:59:44;95768.41;;;8.40;63.23
22181;BME280;11256;50.830;12.834;2024-02-23T08:04:44;95778.38;;;8.39;63.51
22181;BME280;11256;50.830;12.834;2024-02-23T08:09:47;95784.09;;;8.38;63.71
22181;BME280;11256;50.830;12.834;2024-02-23T08:14:48;95782.50;;;8.37;63.68
22181;BME280;11256;50.830;12.834;2024-02-23T08:19:50;95764.91;;;8.39;63.70
22181;BME280;11256;50.830;12.834;2024-02-23T08:24:51;95756.03;;;8.39;63.95
22181;BME280;11256;50.830;12.834;2024-02-23T08:29:51;95763.19;;;8.52;63.99
22181;BME280;11256;50.830;12.834;2024-02-23T08:34:51;95773.19;;;8.60;63.80
22181;BME280;11256;50.830;12.834;2024-02-23T08:39:59;95770.56;;;8.85;63.69
22181;BME280;11256;50.830;12.834;2024-02-23T08:44:59;95772.16;;;9.12;62.49
22181;BME280;11256;50.830;12.834;2024-02-23T08:50:00;95800.41;;;9.48;61.76
22181;BME280;11256;50.830;12.834;2024-02-23T08:55:00;95799.41;;;9.87;61.82
22181;BME280;11256;50.830;12.834;2024-02-23T09:00:01;95800.81;;;10.10;60.04
22181;BME280;11256;50.830;12.834;2024-02-23T09:05:01;95813.78;;;10.33;60.34
22181;BME280;11256;50.830;12.834;2024-02-23T09:10:02;95805.53;;;10.30;59.11
22181;BME280;11256;50.830;12.834;2024-02-23T09:15:05;95811.38;;;10.32;58.71
22181;BME280;11256;50.830;12.834;2024-02-23T09:20:06;95815.84;;;10.28;59.37
22181;BME280;11256;50.830;12.834;2024-02-23T09:25:07;95810.31;;;10.24;57.91
22181;BME280;11256;50.830;12.834;2024-02-23T09:30:12;95778.91;;;10.32;58.82
22181;BME280;11256;50.830;12.834;2024-02-23T09:35:13;95787.78;;;10.41;59.00
22181;BME280;11256;50.830;12.834;2024-02-23T09:40:15;95806.56;;;10.46;58.54
22181;BME280;11256;50.830;12.834;2024-02-23T09:45:17;95815.44;;;10.55;58.17
22181;BME280;11256;50.830;12.834;2024-02-23T09:50:18;95825.53;;;10.75;59.28
22181;BME280;11256;50.830;12.834;2024-02-23T09:55:21;95844.22;;;10.97;58.61
22181;BME280;11256;50.830;12.834;2024-02-23T10:00:23;95843.97;;;11.10;58.44
22181;BME280;11256;50.830;12.834;2024-02-23T10:05:29;95843.72;;;11.24;58.42
22181;BME280;11256;50.830;12.834;2024-02-23T10:10:32;95837.50;;;11.23;57.00
22181;BME280;11256;50.830;12.834;2024-02-23T10:15:33;95822.69;;;11.21;57.26
22181;BME280;11256;50.830;12.834;2024-02-23T10:20:33;95864.09;;;11.30;56.98
22181;BME280;11256;50.830;12.834;2024-02-23T10:25:35;95860.25;;;11.31;56.48
22181;BME280;11256;50.830;12.834;2024-02-23T10:30:36;95862.19;;;11.30;55.78
22181;BME280;11256;50.830;12.834;2024-02-23T10:35:38;95870.50;;;11.25;56.25
22181;BME280;11256;50.830;12.834;2024-02-23T10:40:41;95875.59;;;11.27;56.19
22181;BME280;11256;50.830;12.834;2024-02-23T10:45:43;95898.59;;;11.21;55.74
22181;BME280;11256;50.830;12.834;2024-02-23T10:50:45;95885.88;;;11.13;56.17
22181;BME280;11256;50.830;12.834;2024-02-23T10:55:46;95899.13;;;11.14;56.99
22181;BME280;11256;50.830;12.834;2024-02-23T11:00:46;95899.75;;;11.11;56.92
22181;BME280;11256;50.830;12.834;2024-02-23T11:05:47;95887.47;;;11.14;56.84
22181;BME280;11256;50.830;12.834;2024-02-23T11:10:49;95875.81;;;11.13;56.60
22181;BME280;11256;50.830;12.834;2024-02-23T11:16:01;95888.13;;;11.11;54.89
22181;BME280;11256;50.830;12.834;2024-02-23T11:21:03;95901.41;;;11.04;55.57
22181;BME280;11256;50.830;12.834;2024-02-23T11:26:05;95882.44;;;11.04;56.59
22181;BME280;11256;50.830;12.834;2024-02-23T11:31:13;95876.06;;;11.00;55.73
22181;BME280;11256;50.830;12.834;2024-02-23T11:36:22;95888.34;;;10.97;56.04
22181;BME280;11256;50.830;12.834;2024-02-23T11:41:23;95896.38;;;10.85;54.35
22181;BME280;11256;50.830;12.834;2024-02-23T11:46:24;95883.31;;;10.87;54.98
22181;BME280;11256;50.830;12.834;2024-02-23T11:51:25;95886.66;;;10.84;54.92
22181;BME280;11256;50.830;12.834;2024-02-23T11:56:29;95875.38;;;10.82;54.81
22181;BME280;11256;50.830;12.834;2024-02-23T12:01:29;95859.91;;;10.83;55.65
22181;BME280;11256;50.830;12.834;2024-02-23T12:06:30;95875.25;;;10.79;55.46
22181;BME280;11256;50.830;12.834;2024-02-23T12:11:32;95869.66;;;10.75;54.28
22181;BME280;11256;50.830;12.834;2024-02-23T12:16:34;95874.28;;;10.75;54.55
22181;BME280;11256;50.830;12.834;2024-02-23T12:21:35;95861.88;;;10.74;55.23
22181;BME280;11256;50.830;12.834;2024-02-23T12:26:36;95866.81;;;10.72;55.53
22181;BME280;11256;50.830;12.834;2024-02-23T12:31:37;95871.25;;;10.76;55.00
22181;BME280;11256;50.830;12.834;2024-02-23T12:36:39;95861.38;;;10.72;55.27
22181;BME280;11256;50.830;12.834;2024-02-23T12:41:39;95870.63;;;10.71;55.66
22181;BME280;11256;50.830;12.834;2024-02-23T12:46:40;95862.50;;;10.71;55.98
22181;BME280;11256;50.830;12.834;2024-02-23T12:51:40;95862.38;;;10.67;56.02
22181;BME280;11256;50.830;12.834;2024-02-23T12:56:40;95871.75;;;10.70;55.50
22181;BME280;11256;50.830;12.834;2024-02-23T13:01:41;95866.34;;;10.70;55.99
22181;BME280;11256;50.830;12.834;2024-02-23T13:06:41;95871.63;;;10.66;56.15
22181;BME280;11256;50.830;12.834;2024-02-23T13:11:42;95862.50;;;10.71;55.81
22181;BME280;11256;50.830;12.834;2024-02-23T13:16:42;95883.41;;;10.70;56.13
22181;BME280;11256;50.830;12.834;2024-02-23T13:21:43;95882.59;;;10.70;56.67
22181;BME280;11256;50.830;12.834;2024-02-23T13:26:43;95880.22;;;10.68;56.57
22181;BME280;11256;50.830;12.834;2024-02-23T13:31:43;95883.91;;;10.64;55.68
22181;BME280;11256;50.830;12.834;2024-02-23T13:36:44;95883.13;;;10.55;54.90
22181;BME280;11256;50.830;12.834;2024-02-23T13:41:44;95888.91;;;10.36;54.72
22181;BME280;11256;50.830;12.834;2024-02-23T13:46:45;95893.56;;;10.36;55.54
22181;BME280;11256;50.830;12.834;2024-02-23T13:51:45;95892.75;;;10.35;55.37
22181;BME280;11256;50.830;12.834;2024-02-23T13:56:45;95878.59;;;10.30;55.50
22181;BME280;11256;50.830;12.834;2024-02-23T14:01:46;95885.59;;;10.31;55.03
22181;BME280;11256;50.830;12.834;2024-02-23T14:06:46;95896.59;;;10.26;55.63
22181;BME280;11256;50.830;12.834;2024-02-23T14:11:46;95897.72;;;10.25;55.32
22181;BME280;11256;50.830;12.834;2024-02-23T14:16:47;95901.38;;;10.20;54.78
22181;BME280;11256;50.830;12.834;2024-02-23T14:21:47;95900.44;;;10.16;55.07
22181;BME280;11256;50.830;12.834;2024-02-23T14:26:48;95890.91;;;10.10;54.48
22181;BME280;11256;50.830;12.834;2024-02-23T14:31:49;95886.94;;;10.08;54.71
22181;BME280;11256;50.830;12.834;2024-02-23T14:36:49;95903.94;;;10.08;54.79
22181;BME280;11256;50.830;12.834;2024-02-23T14:41:50;95898.38;;;10.05;54.62
22181;BME280;11256;50.830;12.834;2024-02-23T14:46:50;95891.22;;;10.00;55.06
22181;BME280;11256;50.830;12.834;2024-02-23T14:51:50;95877.38;;;9.85;55.13
22181;BME280;11256;50.830;12.834;2024-02-23T14:56:51;95886.91;;;9.91;55.01
22181;BME280;11256;50.830;12.834;2024-02-23T15:01:51;95879.59;;;9.83;55.39
22181;BME280;11256;50.830;12.834;2024-02-23T15:06:52;95878.66;;;9.79;55.31
22181;BME280;11256;50.830;12.834;2024-02-23T15:11:52;95881.06;;;9.63;55.89
22181;BME280;11256;50.830;12.834;2024-02-23T15:16:53;95886.31;;;9.60;55.92
22181;BME280;11256;50.830;12.834;2024-02-23T15:21:53;95885.81;;;9.58;56.27
22181;BME280;11256;50.830;12.834;2024-02-23T15:26:54;95879.47;;;9.62;56.62
22181;BME280;11256;50.830;12.834;2024-02-23T15:31:54;95866.88;;;9.58;56.37
22181;BME280;11256;50.830;12.834;2024-02-23T15:36:55;95865.44;;;9.52;56.33
22181;BME280;11256;50.830;12.834;2024-02-23T15:41:56;95874.38;;;9.52;56.52
22181;BME280;11256;50.830;12.834;2024-02-23T15:46:56;95869.94;;;9.48;56.59
22181;BME280;11256;50.830;12.834;2024-02-23T15:51:56;95869.59;;;9.41;56.76
22181;BME280;11256;50.830;12.834;2024-02-23T15:56:57;95875.94;;;9.36;56.78
22181;BME280;11256;50.830;12.834;2024-02-23T16:01:57;95895.84;;;9.32;56.84
22181;BME280;11256;50.830;12.834;2024-02-23T16:07:00;95914.91;;;9.27;57.04
22181;BME280;11256;50.830;12.834;2024-02-23T16:12:01;95957.16;;;9.23;57.37
22181;BME280;11256;50.830;12.834;2024-02-23T16:17:01;95959.03;;;9.14;57.43
22181;BME280;11256;50.830;12.834;2024-02-23T16:22:03;95970.31;;;9.07;57.70
22181;BME280;11256;50.830;12.834;2024-02-23T16:27:03;95953.44;;;9.02;57.79
22181;BME280;11256;50.830;12.834;2024-02-23T16:32:04;95945.97;;;8.99;57.93
22181;BME280;11256;50.830;12.834;2024-02-23T16:37:05;95927.22;;;8.94;57.78
22181;BME280;11256;50.830;12.834;2024-02-23T16:42:05;95887.97;;;8.88;57.98
22181;BME280;11256;50.830;12.834;2024-02-23T16:47:05;95879.16;;;8.74;58.03
22181;BME280;11256;50.830;12.834;2024-02-23T16:52:06;95900.31;;;8.80;58.13
22181;BME280;11256;50.830;12.834;2024-02-23T16:57:06;95907.75;;;8.75;58.14
22181;BME280;11256;50.830;12.834;2024-02-23T17:02:07;95910.59;;;8.70;58.60
22181;BME280;11256;50.830;12.834;2024-02-23T17:07:07;95909.59;;;8.66;58.40
22181;BME280;11256;50.830;12.834;2024-02-23T17:12:08;95899.72;;;8.53;58.35
22181;BME280;11256;50.830;12.834;2024-02-23T17:17:08;95909.56;;;8.57;58.40
22181;BME280;11256;50.830;12.834;2024-02-23T17:22:08;95928.94;;;8.51;58.67
22181;BME280;11256;50.830;12.834;2024-02-23T17:27:09;95923.31;;;8.39;58.83
22181;BME280;11256;50.830;12.834;2024-02-23T17:32:09;95927.88;;;8.30;58.86
22181;BME280;11256;50.830;12.834;2024-02-23T17:37:09;95912.03;;;8.15;58.85
22181;BME280;11256;50.830;12.834;2024-02-23T17:42:10;95915.97;;;8.09;59.10
22181;BME280;11256;50.830;12.834;2024-02-23T17:47:10;95918.97;;;8.07;59.33
22181;BME280;11256;50.830;12.834;2024-02-23T17:52:10;95906.09;;;8.04;59.45
22181;BME280;11256;50.830;12.834;2024-02-23T17:57:11;95925.41;;;7.98;59.31
22181;BME280;11256;50.830;12.834;2024-02-23T18:02:11;95903.38;;;7.74;59.27
22181;BME280;11256;50.830;12.834;2024-02-23T18:07:12;95919.91;;;7.81;59.92
22181;BME280;11256;50.830;12.834;2024-02-23T18:12:13;95921.13;;;7.75;59.77
22181;BME280;11256;50.830;12.834;2024-02-23T18:17:13;95914.69;;;7.62;60.25
22181;BME280;11256;50.830;12.834;2024-02-23T18:22:14;95914.97;;;7.61;60.11
22181;BME280;11256;50.830;12.834;2024-02-23T18:27:14;95922.56;;;7.59;60.39
22181;BME280;11256;50.830;12.834;2024-02-23T18:32:14;95914.31;;;7.55;60.72
22181;BME280;11256;50.830;12.834;2024-02-23T18:37:15;95899.66;;;7.48;60.73
22181;BME280;11256;50.830;12.834;2024-02-23T18:42:15;95909.16;;;7.45;60.60
22181;BME280;11256;50.830;12.834;2024-02-23T18:47:15;95912.75;;;7.41;61.06
22181;BME280;11256;50.830;12.834;2024-02-23T18:52:16;95917.75;;;7.34;60.84
22181;BME280;11256;50.830;12.834;2024-02-23T18:57:16;95941.03;;;7.30;61.52
22181;BME280;11256;50.830;12.834;2024-02-23T19:02:18;95933.06;;;7.25;61.69
22181;BME280;11256;50.830;12.834;2024-02-23T19:07:19;95905.34;;;7.11;61.41
22181;BME280;11256;50.830;12.834;2024-02-23T19:12:20;95893.56;;;7.07;61.52
22181;BME280;11256;50.830;12.834;2024-02-23T19:17:20;95892.97;;;7.10;61.32
22181;BME280;11256;50.830;12.834;2024-02-23T19:22:20;95921.59;;;7.06;61.13
22181;BME280;11256;50.830;12.834;2024-02-23T19:27:21;95915.94;;;6.94;61.23
22181;BME280;11256;50.830;12.834;2024-02-23T19:32:22;95942.56;;;6.95;61.40
22181;BME280;11256;50.830;12.834;2024-02-23T19:37:22;95944.53;;;6.90;61.65
22181;BME280;11256;50.830;12.834;2024-02-23T19:42:24;95942.75;;;6.85;61.71
22181;BME280;11256;50.830;12.834;2024-02-23T19:47:24;95934.28;;;6.78;61.71
22181;BME280;11256;50.830;12.834;2024-02-23T19:52:25;95936.28;;;6.73;62.21
22181;BME280;11256;50.830;12.834;2024-02-23T19:57:26;95933.97;;;6.66;61.88
22181;BME280;11256;50.830;12.834;2024-02-23T20:02:26;95921.44;;;6.62;61.61
22181;BME280;11256;50.830;12.834;2024-02-23T20:07:27;95913.66;;;6.60;61.91
22181;BME280;11256;50.830;12.834;2024-02-23T20:12:27;95903.78;;;6.56;62.51
22181;BME280;11256;50.830;12.834;2024-02-23T20:17:27;95887.75;;;6.51;61.99
22181;BME280;11256;50.830;12.834;2024-02-23T20:22:29;95864.72;;;6.45;62.02
22181;BME280;11256;50.830;12.834;2024-02-23T20:27:29;95881.44;;;6.42;62.38
22181;BME280;11256;50.830;12.834;2024-02-23T20:32:30;95917.31;;;6.37;62.79
22181;BME280;11256;50.830;12.834;2024-02-23T20:37:30;95912.84;;;6.33;62.87
22181;BME280;11256;50.830;12.834;2024-02-23T20:42:31;95912.66;;;6.29;62.90
22181;BME280;11256;50.830;12.834;2024-02-23T20:47:31;95906.53;;;6.24;62.53
22181;BME280;11256;50.830;12.834;2024-02-23T20:52:31;95924.06;;;6.21;62.69
22181;BME280;11256;50.830;12.834;2024-02-23T20:57:32;95932.50;;;6.15;62.97
22181;BME280;11256;50.830;12.834;2024-02-23T21:02:32;95932.00;;;6.13;63.41
22181;BME280;11256;50.830;12.834;2024-02-23T21:07:32;95947.13;;;6.09;62.91
22181;BME280;11256;50.830;12.834;2024-02-23T21:12:33;95948.31;;;6.03;62.71
22181;BME280;11256;50.830;12.834;2024-02-23T21:17:33;95954.28;;;6.00;63.41
22181;BME280;11256;50.830;12.834;2024-02-23T21:22:34;95934.97;;;5.98;63.44
22181;BME280;11256;50.830;12.834;2024-02-23T21:27:34;95936.66;;;5.94;62.88
22181;BME280;11256;50.830;12.834;2024-02-23T21:32:34;95934.34;;;5.87;63.41
22181;BME280;11256;50.830;12.834;2024-02-23T21:37:35;95925.25;;;5.83;63.22
22181;BME280;11256;50.830;12.834;2024-02-23T21:42:35;95917.00;;;5.80;63.38
22181;BME280;11256;50.830;12.834;2024-02-23T21:47:35;95899.81;;;5.76;63.78
22181;BME280;11256;50.830;12.834;2024-02-23T21:52:36;95912.75;;;5.74;63.74
22181;BME280;11256;50.830;12.834;2024-02-23T21:57:39;95914.94;;;5.72;64.12
22181;BME280;11256;50.830;12.834;2024-02-23T22:02:39;95924.69;;;5.68;63.47
22181;BME280;11256;50.830;12.834;2024-02-23T22:07:40;95918.28;;;5.64;63.86
22181;BME280;11256;50.830;12.834;2024-02-23T22:12:40;95914.59;;;5.60;63.63
22181;BME280;11256;50.830;12.834;2024-02-23T22:17:41;95922.97;;;5.58;63.50
22181;BME280;11256;50.830;12.834;2024-02-23T22:22:41;95926.50;;;5.54;63.52
22181;BME280;11256;50.830;12.834;2024-02-23T22:27:42;95915.06;;;5.48;63.62
22181;BME280;11256;50.830;12.834;2024-02-23T22:32:42;95909.47;;;5.45;63.90
22181;BME280;11256;50.830;12.834;2024-02-23T22:37:43;95903.66;;;5.38;63.42
22181;BME280;11256;50.830;12.834;2024-02-23T22:42:44;95913.00;;;5.40;64.03
22181;BME280;11256;50.830;12.834;2024-02-23T22:47:44;95920.34;;;5.35;63.75
22181;BME280;11256;50.830;12.834;2024-02-23T22:52:45;95916.16;;;5.29;64.09
22181;BME280;11256;50.830;12.834;2024-02-23T22:57:45;95938.19;;;5.26;63.72
22181;BME280;11256;50.830;12.834;2024-02-23T23:02:45;95937.97;;;5.22;64.33
22181;BME280;11256;50.830;12.834;2024-02-23T23:07:46;95947.69;;;5.18;64.19
22181;BME280;11256;50.830;12.834;2024-02-23T23:12:46;95940.50;;;5.14;64.08
22181;BME280;11256;50.830;12.834;2024-02-23T23:17:46;95949.44;;;5.09;63.99
22181;BME280;11256;50.830;12.834;2024-02-23T23:22:47;95939.56;;;5.05;64.40
22181;BME280;11256;50.830;12.834;2024-02-23T23:27:47;95942.28;;;5.00;63.83
22181;BME280;11256;50.830;12.834;2024-02-23T23:32:49;95930.03;;;4.94;64.37
22181;BME280;11256;50.830;12.834;2024-02-23T23:37:50;95940.28;;;4.92;64.19
22181;BME280;11256;50.830;12.834;2024-02-23T23:42:50;95934.97;;;4.87;64.06
22181;BME280;11256;50.830;12.834;2024-02-23T23:47:50;95925.94;;;4.78;64.11
22181;BME280;11256;50.830;12.834;2024-02-23T23:52:51;95927.53;;;4.79;64.38
22181;BME280;11256;50.830;12.834;2024-02-23T23:57:51;95930.31;;;4.74;64.47
